Time;durP1;ratioP1;P1;durP2;ratioP2;P2;SDS_P1;SDS_P2;PMS_P1;PMS_P2;Temp;Humidity;BMP_temperature;BMP_pressure;BME280_temperature;BME280_humidity;BME280_pressure;Samples;Min_cycle;Max_cycle;Signal;HPM_P1;HPM_P2
2022/10/02 00:00:21;;;;;;;2.15;1.30;;;;;;;11.74;100.00;97111.34;5061099;28;20485;-66
2022/10/02 00:02:57;;;;;;;3.25;1.10;;;;;;;11.64;100.00;97117.41;5076836;28;20040;-67
2022/10/02 00:05:31;;;;;;;3.15;1.13;;;;;;;11.66;100.00;97110.41;5069846;28;20059;-67
2022/10/02 00:08:06;;;;;;;3.30;1.00;;;;;;;11.62;100.00;97108.75;5074927;28;20062;-67
2022/10/02 00:10:44;;;;;;;3.72;1.25;;;;;;;11.65;100.00;97114.31;5068316;28;20088;-68
2022/10/02 00:13:32;;;;;;;2.38;1.20;;;;;;;11.63;100.00;97118.56;5071655;28;20044;-69
2022/10/02 00:16:00;;;;;;;3.75;1.30;;;;;;;11.60;100.00;97113.81;5070469;28;20063;-68
2022/10/02 00:18:34;;;;;;;2.97;1.38;;;;;;;11.60;100.00;97125.59;5059337;28;20047;-67
2022/10/02 00:21:03;;;;;;;3.95;1.15;;;;;;;11.69;100.00;97124.56;5070207;28;20048;-68
2022/10/02 00:23:43;;;;;;;4.10;1.13;;;;;;;11.71;100.00;97125.78;5053328;28;20096;-66
2022/10/02 00:26:25;;;;;;;5.65;1.70;;;;;;;11.71;100.00;97134.00;5067829;28;20667;-66
2022/10/02 00:29:06;;;;;;;2.22;1.52;;;;;;;11.81;100.00;97138.91;5073060;28;20036;-67
2022/10/02 00:31:43;;;;;;;4.35;1.67;;;;;;;11.78;100.00;97156.09;5064338;28;20048;-69
2022/10/02 00:34:29;;;;;;;4.78;2.42;;;;;;;11.75;100.00;97156.03;5065617;28;20044;-68
2022/10/02 00:37:13;;;;;;;4.13;2.08;;;;;;;11.68;100.00;97164.91;5072001;28;20044;-68
2022/10/02 00:39:56;;;;;;;8.98;2.45;;;;;;;11.62;100.00;97169.91;5070605;28;20044;-68
2022/10/02 00:42:42;;;;;;;3.40;1.38;;;;;;;11.48;100.00;97164.91;5073276;28;20040;-69
2022/10/02 00:45:33;;;;;;;5.05;1.92;;;;;;;11.40;100.00;97176.13;5063068;28;20047;-69
2022/10/02 00:48:10;;;;;;;4.40;1.90;;;;;;;11.39;100.00;97167.09;5071865;28;20040;-69
2022/10/02 00:51:06;;;;;;;2.72;1.42;;;;;;;11.43;100.00;97167.97;5072735;28;20032;-68
2022/10/02 00:53:47;;;;;;;8.93;3.50;;;;;;;11.51;100.00;97173.59;5069424;28;20043;-68
2022/10/02 00:57:08;;;;;;;5.25;2.50;;;;;;;11.42;100.00;97174.59;5054705;28;20377;-68
2022/10/02 00:59:52;;;;;;;4.85;2.22;;;;;;;11.41;100.00;97177.69;5035622;28;20067;-68
2022/10/02 01:02:35;;;;;;;4.97;2.08;;;;;;;11.46;100.00;97180.16;5054869;28;20048;-69
2022/10/02 01:05:09;;;;;;;3.78;1.98;;;;;;;11.39;100.00;97166.31;5061383;28;20040;-68
2022/10/02 01:07:38;;;;;;;3.63;1.70;;;;;;;11.38;100.00;97160.03;5053654;28;20053;-68
2022/10/02 01:10:06;;;;;;;2.63;1.45;;;;;;;11.59;100.00;97147.88;5052507;28;20072;-66
2022/10/02 01:12:31;;;;;;;3.72;1.30;;;;;;;11.60;100.00;97164.00;5066267;28;20052;-67
2022/10/02 01:14:57;;;;;;;3.35;1.38;;;;;;;11.71;100.00;97160.66;5063961;28;20040;-67
2022/10/02 01:17:23;;;;;;;3.40;1.50;;;;;;;11.72;100.00;97156.75;5050257;28;20070;-67
2022/10/02 01:19:49;;;;;;;6.45;1.30;;;;;;;11.78;100.00;97156.09;5054956;28;20041;-67
2022/10/02 01:22:36;;;;;;;3.40;1.40;;;;;;;11.81;100.00;97155.38;5054774;28;20055;-67
2022/10/02 01:25:04;;;;;;;3.25;1.40;;;;;;;11.85;100.00;97156.25;5058706;28;20123;-66
2022/10/02 01:27:31;;;;;;;3.58;1.50;;;;;;;11.88;100.00;97159.41;5058391;28;20124;-67
2022/10/02 01:30:05;;;;;;;3.22;1.05;;;;;;;11.86;100.00;97163.28;5057389;28;20048;-67
2022/10/02 01:32:32;;;;;;;3.40;1.05;;;;;;;11.89;100.00;97161.00;5055649;28;20323;-67
2022/10/02 01:34:59;;;;;;;4.07;1.40;;;;;;;11.91;100.00;97161.47;5060639;28;20051;-67
2022/10/02 01:37:28;;;;;;;2.58;0.98;;;;;;;11.92;100.00;97168.53;5050492;28;20047;-67
2022/10/02 01:40:00;;;;;;;4.70;1.00;;;;;;;11.95;100.00;97165.06;5055558;28;20434;-67
2022/10/02 01:42:26;;;;;;;4.60;1.27;;;;;;;11.98;100.00;97173.38;5051723;28;20071;-67
2022/10/02 01:44:51;;;;;;;4.25;1.30;;;;;;;11.94;100.00;97166.22;5061157;28;20903;-69
2022/10/02 01:47:39;;;;;;;7.95;1.38;;;;;;;11.92;100.00;97161.09;5055162;28;20489;-67
2022/10/02 01:50:26;;;;;;;3.75;1.30;;;;;;;11.90;100.00;97162.56;5071555;28;20117;-67
2022/10/02 01:53:13;;;;;;;11.73;1.75;;;;;;;11.92;100.00;97174.00;5056367;28;20045;-67
2022/10/02 01:56:02;;;;;;;5.85;1.10;;;;;;;11.90;100.00;97176.31;5056489;28;20060;-67
2022/10/02 01:59:00;;;;;;;2.63;1.20;;;;;;;11.90;100.00;97173.56;5065049;28;20091;-65
2022/10/02 02:01:43;;;;;;;4.88;1.27;;;;;;;11.97;100.00;97177.25;5057775;28;20442;-67
2022/10/02 02:04:32;;;;;;;3.70;0.82;;;;;;;11.97;100.00;97185.47;5058195;28;20123;-68
2022/10/02 02:07:03;;;;;;;;;;;;;;;11.99;100.00;97183.19;5063212;28;20056;-67
2022/10/02 02:09:40;;;;;;;5.38;1.20;;;;;;;12.09;100.00;97181.78;5053809;28;19923;-68
2022/10/02 02:12:17;;;;;;;4.35;1.20;;;;;;;12.09;100.00;97187.28;5058630;28;20501;-67
2022/10/02 02:15:03;;;;;;;4.65;1.50;;;;;;;12.15;100.00;97179.53;5063006;28;20059;-68
2022/10/02 02:17:37;;;;;;;4.78;1.42;;;;;;;12.17;100.00;97189.00;5059042;28;20044;-68
2022/10/02 02:20:17;;;;;;;5.15;1.35;;;;;;;12.16;100.00;97187.41;5060573;28;20048;-66
2022/10/02 02:22:50;;;;;;;7.82;1.90;;;;;;;12.16;100.00;97189.38;5058107;28;20494;-68
2022/10/02 02:25:20;;;;;;;5.97;1.25;;;;;;;12.21;100.00;97191.81;5059087;28;20047;-68
2022/10/02 02:27:51;;;;;;;2.72;0.98;;;;;;;12.21;100.00;97189.88;5077833;28;20686;-68
2022/10/02 02:30:19;;;;;;;5.63;1.20;;;;;;;12.24;100.00;97188.31;5049048;28;20047;-68
2022/10/02 02:32:49;;;;;;;3.80;1.20;;;;;;;12.27;100.00;97189.56;5062565;28;20045;-68
2022/10/02 02:35:29;;;;;;;10.48;1.48;;;;;;;12.24;100.00;97188.31;5055669;28;20045;-67
2022/10/02 02:38:02;;;;;;;5.18;1.60;;;;;;;12.26;100.00;97185.22;5062141;28;20089;-67
2022/10/02 02:40:31;;;;;;;4.82;1.02;;;;;;;12.29;100.00;97173.50;5050749;28;20043;-67
2022/10/02 02:43:04;;;;;;;5.68;1.30;;;;;;;12.29;100.00;97170.75;5060892;28;20047;-67
2022/10/02 02:45:39;;;;;;;4.00;1.10;;;;;;;12.23;100.00;97165.56;5054696;28;20037;-67
2022/10/02 02:48:16;;;;;;;3.60;1.42;;;;;;;12.24;100.00;97169.91;5053697;28;20090;-67
2022/10/02 02:50:59;;;;;;;2.60;0.88;;;;;;;12.25;100.00;97170.69;5065516;28;20036;-66
2022/10/02 02:53:34;;;;;;;5.10;1.13;;;;;;;12.22;100.00;97160.44;5062239;28;20541;-67
2022/10/02 02:56:03;;;;;;;2.50;1.20;;;;;;;12.20;100.00;97163.53;5061669;28;20048;-67
2022/10/02 02:58:46;;;;;;;3.13;0.95;;;;;;;12.20;100.00;97166.28;5054282;28;20048;-67
2022/10/02 03:01:11;;;;;;;3.05;1.05;;;;;;;12.24;100.00;97160.88;5054713;28;20055;-67
2022/10/02 03:03:37;;;;;;;4.85;1.27;;;;;;;12.21;100.00;97167.88;5062202;28;20354;-67
2022/10/02 03:06:22;;;;;;;5.35;1.70;;;;;;;12.19;100.00;97161.97;5058291;28;20036;-67
2022/10/02 03:08:51;;;;;;;2.25;1.08;;;;;;;12.19;100.00;97158.41;5053223;28;20076;-67
2022/10/02 03:11:25;;;;;;;6.40;1.20;;;;;;;12.19;100.00;97158.41;5050795;28;20133;-67
2022/10/02 03:14:03;;;;;;;3.60;1.30;;;;;;;12.18;100.00;97151.34;5054344;28;20045;-68
2022/10/02 03:16:55;;;;;;;5.53;1.20;;;;;;;12.17;100.00;97163.47;5050713;28;20044;-68
2022/10/02 03:19:41;;;;;;;7.72;1.00;;;;;;;12.17;100.00;97158.81;5053561;28;20114;-68
2022/10/02 03:22:22;;;;;;;2.45;0.85;;;;;;;12.24;100.00;97155.38;5057032;28;20051;-67
2022/10/02 03:25:25;;;;;;;5.07;1.30;;;;;;;12.28;100.00;97150.75;5061160;28;20187;-67
2022/10/02 03:27:56;;;;;;;3.85;1.10;;;;;;;12.34;100.00;97152.03;5036743;28;20052;-67
2022/10/02 03:30:23;;;;;;;5.93;1.52;;;;;;;12.35;100.00;97150.06;5055256;28;21024;-67
2022/10/02 03:32:52;;;;;;;4.18;1.35;;;;;;;12.39;100.00;97154.47;5062181;28;20045;-66
2022/10/02 03:35:20;;;;;;;4.50;1.20;;;;;;;12.41;100.00;97151.34;5054717;28;20525;-67
2022/10/02 03:37:52;;;;;;;18.88;2.65;;;;;;;12.45;100.00;97149.44;5059660;28;20041;-67
2022/10/02 03:40:25;;;;;;;5.47;1.33;;;;;;;12.47;100.00;97151.84;5056262;28;20044;-67
2022/10/02 03:42:52;;;;;;;5.80;1.20;;;;;;;12.49;100.00;97144.00;5061293;28;20048;-66
2022/10/02 03:45:18;;;;;;;5.85;1.27;;;;;;;12.47;100.00;97138.88;5058541;28;20119;-66
2022/10/02 03:47:45;;;;;;;2.47;1.20;;;;;;;12.51;100.00;97149.94;5061325;28;20041;-66
2022/10/02 03:50:14;;;;;;;4.32;1.20;;;;;;;12.55;100.00;97137.03;5054210;28;20044;-65
2022/10/02 03:52:40;;;;;;;9.07;1.60;;;;;;;12.56;100.00;97144.13;5061041;28;20045;-66
2022/10/02 03:55:32;;;;;;;6.13;1.40;;;;;;;12.57;100.00;97145.72;5047963;28;20117;-66
2022/10/02 03:58:01;;;;;;;6.90;1.65;;;;;;;12.55;100.00;97139.78;5045966;28;20055;-66
2022/10/02 04:00:55;;;;;;;5.97;1.40;;;;;;;12.57;100.00;97135.50;5055455;28;20145;-66
2022/10/02 04:03:33;;;;;;;8.15;1.48;;;;;;;12.59;100.00;97135.94;5055312;28;20117;-65
2022/10/02 04:06:08;;;;;;;6.55;1.42;;;;;;;12.62;100.00;97140.69;5072566;28;20060;-65
2022/10/02 04:08:38;;;;;;;5.35;1.23;;;;;;;12.63;100.00;97147.75;5041094;28;20037;-66
2022/10/02 04:11:15;;;;;;;6.50;1.85;;;;;;;12.65;100.00;97150.16;5034259;28;20044;-67
2022/10/02 04:14:05;;;;;;;8.27;1.67;;;;;;;12.62;100.00;97134.38;5057753;28;20036;-66
2022/10/02 04:16:41;;;;;;;4.97;1.50;;;;;;;12.63;100.00;97142.28;5039801;28;20125;-68
2022/10/02 04:19:36;;;;;;;3.83;1.50;;;;;;;12.57;100.00;97140.22;5035975;28;20033;-67
2022/10/02 04:22:11;;;;;;;9.85;1.92;;;;;;;12.54;100.00;97135.47;5030923;28;20040;-67
2022/10/02 04:24:46;;;;;;;9.00;1.85;;;;;;;12.55;100.00;97128.78;5052391;28;20147;-67
2022/10/02 04:27:20;;;;;;;8.65;1.67;;;;;;;12.48;100.00;97124.00;5054386;28;20060;-67
2022/10/02 04:30:01;;;;;;;5.40;1.73;;;;;;;12.48;100.00;97115.75;5060029;28;20047;-66
2022/10/02 04:32:32;;;;;;;9.95;2.05;;;;;;;12.50;100.00;97112.63;5052091;28;20139;-67
2022/10/02 04:34:58;;;;;;;5.32;1.50;;;;;;;12.47;100.00;97105.91;5050085;28;20044;-67
2022/10/02 04:37:35;;;;;;;7.88;1.83;;;;;;;12.45;100.00;97105.50;5053188;28;20457;-66
2022/10/02 04:40:23;;;;;;;7.95;1.80;;;;;;;12.48;100.00;97107.50;5060210;28;20225;-66
2022/10/02 04:43:21;;;;;;;4.55;1.70;;;;;;;12.51;100.00;97115.00;5050237;28;20498;-67
2022/10/02 04:46:01;;;;;;;5.88;1.77;;;;;;;12.69;100.00;97115.25;5053811;28;20048;-65
2022/10/02 04:48:36;;;;;;;4.10;1.52;;;;;;;12.66;100.00;97121.53;5052436;28;20045;-65
2022/10/02 04:51:14;;;;;;;3.60;1.58;;;;;;;12.72;100.00;97116.50;5059506;28;20052;-66
2022/10/02 04:53:44;;;;;;;6.38;1.80;;;;;;;12.70;100.00;97113.31;5050156;28;20169;-65
2022/10/02 04:56:19;;;;;;;7.05;1.60;;;;;;;12.71;100.00;97123.13;5054417;28;20048;-67
2022/10/02 04:58:51;;;;;;;6.30;2.10;;;;;;;12.75;100.00;97121.25;5056896;28;20036;-66
2022/10/02 05:01:54;;;;;;;3.50;1.58;;;;;;;12.79;100.00;97109.13;5056084;28;20477;-66
2022/10/02 05:04:29;;;;;;;4.95;2.00;;;;;;;12.73;100.00;97118.88;5055829;28;20055;-67
2022/10/02 05:07:30;;;;;;;3.97;1.60;;;;;;;12.69;100.00;97136.47;5059779;28;20639;-68
2022/10/02 05:10:40;;;;;;;4.38;1.80;;;;;;;12.79;100.00;97133.09;5060355;28;20037;-68
2022/10/02 05:13:30;;;;;;;4.32;1.40;;;;;;;12.82;100.00;97135.09;5014526;28;20053;-68
2022/10/02 05:16:27;;;;;;;2.33;1.40;;;;;;;12.65;100.00;97133.66;5047989;28;20045;-66
2022/10/02 05:19:17;;;;;;;4.13;1.90;;;;;;;12.59;100.00;97135.16;5055395;28;20080;-65
2022/10/02 05:22:00;;;;;;;4.05;2.20;;;;;;;12.58;100.00;97134.34;5055087;28;20072;-66
2022/10/02 05:24:26;;;;;;;3.35;2.17;;;;;;;12.56;100.00;97128.41;5055838;28;20037;-66
2022/10/02 05:27:36;;;;;;;4.10;2.30;;;;;;;12.57;100.00;97134.72;5060692;28;20519;-66
2022/10/02 05:30:13;;;;;;;4.25;1.70;;;;;;;12.51;100.00;97138.94;5046639;28;20047;-66
2022/10/02 05:32:51;;;;;;;5.15;1.77;;;;;;;12.52;100.00;97135.03;5057828;28;20056;-66
2022/10/02 05:35:39;;;;;;;3.65;1.50;;;;;;;12.53;100.00;97133.84;5057350;28;20045;-68
2022/10/02 05:38:18;;;;;;;4.90;1.50;;;;;;;12.57;100.00;97121.78;5057107;28;20048;-68
2022/10/02 05:41:06;;;;;;;2.58;1.52;;;;;;;12.58;100.00;97122.56;5061076;28;20044;-67
2022/10/02 05:43:57;;;;;;;2.25;1.55;;;;;;;12.59;100.00;97119.44;5052431;28;20058;-68
2022/10/02 05:46:31;;;;;;;4.35;1.77;;;;;;;12.65;100.00;97125.41;5058051;28;20540;-68
2022/10/02 05:49:04;;;;;;;1.75;1.40;;;;;;;12.72;100.00;97111.78;5064034;28;20136;-67
2022/10/02 05:52:15;;;;;;;1.70;1.17;;;;;;;12.78;100.00;97110.31;5062096;28;20053;-67
2022/10/02 05:54:50;;;;;;;1.85;1.40;;;;;;;12.83;100.00;97106.44;5043422;28;20163;-67
2022/10/02 05:57:25;;;;;;;3.35;1.20;;;;;;;12.86;100.00;97094.72;5047249;28;20045;-67
2022/10/02 06:00:05;;;;;;;3.58;1.20;;;;;;;12.89;100.00;97095.91;5042132;28;20075;-67
2022/10/02 06:02:56;;;;;;;1.73;1.20;;;;;;;12.89;100.00;97096.72;5067924;28;20068;-67
2022/10/02 06:05:55;;;;;;;7.38;1.60;;;;;;;12.96;100.00;97101.50;5051873;28;20394;-66
2022/10/02 06:08:26;;;;;;;;;;;;;;;12.99;100.00;97100.75;5042496;28;20076;-67
2022/10/02 06:11:00;;;;;;;5.75;1.08;;;;;;;13.05;100.00;97107.50;5065367;28;19944;-66
2022/10/02 06:13:25;;;;;;;1.92;1.00;;;;;;;13.09;100.00;97108.38;5060419;28;20413;-66
2022/10/02 06:15:58;;;;;;;5.45;1.02;;;;;;;13.12;100.00;97104.84;5082881;28;20076;-68
2022/10/02 06:18:28;;;;;;;2.28;1.10;;;;;;;13.10;100.00;97103.66;5057440;28;20121;-67
2022/10/02 06:21:09;;;;;;;2.47;1.20;;;;;;;13.07;100.00;97101.63;5060814;28;20079;-66
2022/10/02 06:23:51;;;;;;;4.55;1.00;;;;;;;13.09;100.00;97107.56;5055099;28;20036;-66
2022/10/02 06:26:46;;;;;;;1.40;1.00;;;;;;;13.11;100.00;97113.50;5057011;28;20066;-66
2022/10/02 06:29:27;;;;;;;3.65;1.10;;;;;;;13.18;100.00;97114.38;5049319;28;20490;-67
2022/10/02 06:32:23;;;;;;;1.48;1.00;;;;;;;13.22;100.00;97108.91;5062026;28;20110;-67
2022/10/02 06:34:49;;;;;;;1.48;0.73;;;;;;;13.31;100.00;97103.94;5056429;28;20046;-67
2022/10/02 06:37:29;;;;;;;2.50;1.02;;;;;;;13.37;100.00;97104.41;5036952;28;20498;-64
2022/10/02 06:40:04;;;;;;;3.83;1.70;;;;;;;13.41;100.00;97110.75;5063337;28;20105;-67
2022/10/02 06:42:51;;;;;;;6.45;2.40;;;;;;;13.49;100.00;97112.41;5064138;28;20135;-67
2022/10/02 06:45:52;;;;;;;1.45;0.90;;;;;;;13.58;100.00;97099.16;5072486;28;20082;-67
2022/10/02 06:48:37;;;;;;;1.85;0.90;;;;;;;13.63;100.00;97102.72;5057084;28;20436;-67
2022/10/02 06:51:29;;;;;;;5.75;2.10;;;;;;;13.57;100.00;97094.00;5053096;28;20048;-67
2022/10/02 06:54:17;;;;;;;6.35;2.75;;;;;;;13.75;100.00;97097.75;5059260;28;20063;-65
2022/10/02 06:56:55;;;;;;;4.75;2.20;;;;;;;13.81;100.00;97092.72;5062380;28;20477;-67
2022/10/02 06:59:35;;;;;;;3.70;1.80;;;;;;;13.89;100.00;97093.56;5033558;28;20535;-68
2022/10/02 07:02:31;;;;;;;1.80;1.05;;;;;;;13.90;100.00;97098.69;5059884;28;20044;-67
2022/10/02 07:05:18;;;;;;;2.67;1.70;;;;;;;13.93;100.00;97100.66;5062432;28;20393;-67
2022/10/02 07:08:11;;;;;;;2.20;1.33;;;;;;;14.01;100.00;97098.78;5058208;28;20047;-67
2022/10/02 07:10:49;;;;;;;3.03;1.50;;;;;;;14.01;100.00;97112.56;5060561;28;20044;-66
2022/10/02 07:13:24;;;;;;;3.30;1.13;;;;;;;14.22;100.00;97117.44;5056449;28;20392;-67
2022/10/02 07:16:11;;;;;;;2.78;0.93;;;;;;;14.51;100.00;97106.66;5059230;28;20054;-66
2022/10/02 07:19:15;;;;;;;3.35;0.90;;;;;;;14.87;100.00;97109.69;5049770;28;20037;-68
2022/10/02 07:22:08;;;;;;;3.67;0.90;;;;;;;14.87;100.00;97107.75;5056028;28;20036;-67
2022/10/02 07:24:58;;;;;;;2.25;0.90;;;;;;;14.69;100.00;97098.53;5059119;28;20032;-67
2022/10/02 07:27:56;;;;;;;2.40;0.77;;;;;;;15.02;100.00;97105.06;5054151;28;20125;-67
2022/10/02 07:30:22;;;;;;;1.50;0.73;;;;;;;15.46;100.00;97106.81;5003313;28;20267;-67
2022/10/02 07:32:56;;;;;;;1.63;0.75;;;;;;;15.41;100.00;97088.69;5062321;28;20482;-66
2022/10/02 07:35:59;;;;;;;1.33;0.50;;;;;;;15.42;100.00;97092.22;5047675;28;20053;-66
2022/10/02 07:38:59;;;;;;;2.65;0.68;;;;;;;15.47;100.00;97091.84;5030741;28;20098;-67
2022/10/02 07:41:52;;;;;;;1.85;0.70;;;;;;;15.73;100.00;97101.00;5049907;28;20203;-66
2022/10/02 07:44:36;;;;;;;1.42;0.80;;;;;;;15.35;100.00;97087.47;5044765;28;20041;-66
2022/10/02 07:47:10;;;;;;;1.13;0.70;;;;;;;15.48;100.00;97093.41;5061751;28;20072;-68
2022/10/02 07:49:36;;;;;;;2.53;1.58;;;;;;;15.68;100.00;97093.88;5064352;28;20040;-66
2022/10/02 07:52:38;;;;;;;4.75;1.77;;;;;;;15.86;100.00;97093.94;5070673;28;20584;-66
2022/10/02 07:55:13;;;;;;;3.63;1.90;;;;;;;15.63;100.00;97097.03;5053538;28;20398;-65
2022/10/02 07:57:48;;;;;;;1.40;0.80;;;;;;;15.55;100.00;97095.41;5067828;28;20040;-66
2022/10/02 08:00:18;;;;;;;1.08;0.70;;;;;;;15.17;100.00;97097.66;5057802;28;20401;-66
2022/10/02 08:03:11;;;;;;;3.85;1.10;;;;;;;15.18;100.00;97099.22;5054584;28;20194;-66
2022/10/02 08:05:47;;;;;;;1.58;0.60;;;;;;;15.01;100.00;97098.75;5053120;28;20044;-65
2022/10/02 08:08:38;;;;;;;1.40;0.85;;;;;;;15.12;100.00;97109.03;5048457;28;20041;-65
2022/10/02 08:11:14;;;;;;;1.92;0.90;;;;;;;15.13;100.00;97100.38;5052437;28;20079;-71
2022/10/02 08:13:46;;;;;;;15.68;9.20;;;;;;;15.17;100.00;97097.66;5060023;28;20044;-69
2022/10/02 08:16:15;;;;;;;4.97;1.75;;;;;;;15.20;100.00;97102.41;5051590;28;20220;-71
2022/10/02 08:18:48;;;;;;;1.27;0.80;;;;;;;15.28;100.00;97102.00;5063256;28;20033;-72
2022/10/02 08:21:19;;;;;;;1.23;0.80;;;;;;;15.28;100.00;97095.72;5060537;28;20094;-70
2022/10/02 08:23:51;;;;;;;1.80;0.80;;;;;;;15.23;100.00;97099.66;5062122;28;20051;-70
2022/10/02 08:26:48;;;;;;;1.88;0.80;;;;;;;15.26;100.00;97106.34;5042643;28;20111;-69
2022/10/02 08:29:25;;;;;;;6.90;0.77;;;;;;;15.29;100.00;97098.09;5041793;28;20040;-70
2022/10/02 08:31:51;;;;;;;2.53;0.65;;;;;;;15.33;100.00;97100.88;5061593;28;20036;-70
2022/10/02 08:34:20;;;;;;;3.10;0.70;;;;;;;15.61;100.00;97100.19;5054750;28;20132;-70
2022/10/02 08:36:58;;;;;;;2.63;0.80;;;;;;;15.67;100.00;97101.38;5058992;28;20131;-69
2022/10/02 08:39:45;;;;;;;4.13;0.52;;;;;;;15.75;100.00;97101.41;5045663;28;20494;-71
2022/10/02 08:42:47;;;;;;;1.55;0.73;;;;;;;15.76;100.00;97098.28;5036516;28;20139;-71
2022/10/02 08:45:46;;;;;;;1.88;1.15;;;;;;;15.77;100.00;97104.56;5048936;28;20044;-70
2022/10/02 08:48:39;;;;;;;1.70;1.00;;;;;;;15.68;100.00;97099.38;5050895;28;20032;-72
2022/10/02 08:51:39;;;;;;;1.80;1.13;;;;;;;15.56;100.00;97086.75;5055412;28;20131;-69
2022/10/02 08:54:17;;;;;;;2.17;1.48;;;;;;;15.61;100.00;97082.81;5021248;28;20040;-70
2022/10/02 08:57:33;;;;;;;1.92;1.15;;;;;;;15.58;100.00;97081.63;5059815;28;20171;-72
2022/10/02 09:00:13;;;;;;;1.30;0.82;;;;;;;15.83;100.00;97075.41;5040633;28;20041;-71
2022/10/02 09:02:56;;;;;;;4.25;0.77;;;;;;;15.81;100.00;97066.69;5059990;28;20044;-70
2022/10/02 09:05:54;;;;;;;2.03;0.70;;;;;;;15.83;100.00;97073.44;5063113;28;20829;-70
2022/10/02 09:08:50;;;;;;;1.67;0.50;;;;;;;15.80;100.00;97079.72;5061833;28;20052;-70
2022/10/02 09:11:35;;;;;;;0.98;0.55;;;;;;;15.79;100.00;97074.59;5060413;28;20037;-70
2022/10/02 09:14:29;;;;;;;0.70;0.52;;;;;;;16.54;100.00;97080.16;5065344;28;20044;-71
2022/10/02 09:17:09;;;;;;;1.67;0.40;;;;;;;16.74;100.00;97077.75;5079975;28;20131;-71
2022/10/02 09:20:05;;;;;;;1.70;0.50;;;;;;;16.77;100.00;97082.47;5060860;28;20110;-71
2022/10/02 09:23:01;;;;;;;1.13;0.40;;;;;;;16.48;100.00;97073.44;5059873;28;20044;-71
2022/10/02 09:25:54;;;;;;;0.40;0.30;;;;;;;16.36;100.00;97074.63;5046948;28;20597;-71
2022/10/02 09:28:57;;;;;;;8.60;4.85;;;;;;;16.24;100.00;97059.25;5056240;28;20050;-71
2022/10/02 09:31:33;;;;;;;1.25;0.50;;;;;;;17.02;100.00;97072.59;5057001;28;20650;-71
2022/10/02 09:34:37;;;;;;;0.75;0.50;;;;;;;17.62;100.00;97063.22;5065263;28;20508;-71
2022/10/02 09:37:44;;;;;;;0.30;0.30;;;;;;;18.00;100.00;97054.28;5058940;28;20102;-70
2022/10/02 09:40:12;;;;;;;0.85;0.50;;;;;;;18.54;100.00;97049.06;5043844;28;20102;-70
2022/10/02 09:43:03;;;;;;;1.73;1.08;;;;;;;18.95;100.00;97041.97;5064548;28;20056;-70
2022/10/02 09:46:10;;;;;;;1.05;0.40;;;;;;;19.46;100.00;97054.00;5062539;28;20041;-71
2022/10/02 09:49:01;;;;;;;1.00;0.52;;;;;;;18.88;100.00;97060.25;5039737;28;20091;-72
2022/10/02 09:51:35;;;;;;;0.75;0.60;;;;;;;18.46;100.00;97064.22;5065638;28;20040;-74
2022/10/02 09:54:29;;;;;;;2.05;0.60;;;;;;;18.53;100.00;97055.84;5055081;28;20049;-71
2022/10/02 09:56:55;;;;;;;0.77;0.40;;;;;;;18.14;100.00;97048.63;5043670;28;20378;-71
2022/10/02 10:00:00;;;;;;;3.03;0.57;;;;;;;18.15;100.00;97053.78;5026496;28;20043;-71
2022/10/02 10:02:49;;;;;;;0.68;0.20;;;;;;;17.57;100.00;97052.56;5059801;28;20037;-71
2022/10/02 10:05:49;;;;;;;1.30;0.82;;;;;;;17.51;100.00;97056.94;5054546;28;20153;-73
2022/10/02 10:08:23;;;;;;;1.05;0.40;;;;;;;17.46;100.00;97051.81;5053987;28;20051;-72
2022/10/02 10:11:11;;;;;;;0.45;0.30;;;;;;;17.35;100.00;97049.13;5062111;28;20131;-72
2022/10/02 10:13:59;;;;;;;1.52;0.52;;;;;;;17.39;100.00;97038.81;5062344;28;20041;-72
2022/10/02 10:16:34;;;;;;;0.70;0.38;;;;;;;17.30;100.00;97039.25;5046430;28;20079;-71
2022/10/02 10:19:15;;;;;;;3.10;1.85;;;;;;;17.12;100.00;97044.06;5061499;28;20309;-71
2022/10/02 10:22:08;;;;;;;3.72;1.50;;;;;;;17.12;100.00;97038.53;5060895;28;20051;-71
2022/10/02 10:25:13;;;;;;;3.25;0.60;;;;;;;17.03;100.00;97035.41;5059665;28;20047;-72
2022/10/02 10:27:52;;;;;;;1.17;0.50;;;;;;;17.31;100.00;97037.28;5074021;28;20067;-71
2022/10/02 10:30:52;;;;;;;0.43;0.40;;;;;;;17.25;100.00;97036.91;5064900;28;20071;-71
2022/10/02 10:33:47;;;;;;;1.83;1.02;;;;;;;17.59;100.00;97039.09;5075015;28;20064;-71
2022/10/02 10:39:45;;;;;;;2.20;0.80;;;;;;;17.25;100.00;97036.91;5069895;28;20045;-71
2022/10/02 10:42:45;;;;;;;2.90;1.00;;;;;;;17.28;100.00;97027.78;5047193;28;20082;-70
2022/10/02 10:45:29;;;;;;;1.23;0.63;;;;;;;16.98;100.00;97025.56;5059151;28;20041;-71
2022/10/02 10:48:19;;;;;;;2.08;0.40;;;;;;;16.84;100.00;97031.94;5051647;28;20049;-71
2022/10/02 10:51:34;;;;;;;1.40;0.50;;;;;;;16.75;100.00;97026.00;5046673;28;20083;-71
2022/10/02 10:54:20;;;;;;;2.75;0.75;;;;;;;16.76;100.00;97035.84;5027096;28;20051;-71
2022/10/02 10:57:25;;;;;;;2.50;0.70;;;;;;;16.70;100.00;97029.16;5067792;28;20037;-71
2022/10/02 11:00:09;;;;;;;1.05;0.68;;;;;;;16.77;100.00;97032.69;5058871;28;20048;-70
2022/10/02 11:02:58;;;;;;;0.68;0.50;;;;;;;16.65;100.00;97038.66;5049131;28;20059;-71
2022/10/02 11:05:23;;;;;;;0.88;0.68;;;;;;;16.43;100.00;97033.16;5036126;28;20264;-71
2022/10/02 11:07:57;;;;;;;1.48;0.50;;;;;;;16.35;100.00;97028.84;5061724;28;20397;-71
2022/10/02 11:10:29;;;;;;;1.40;0.65;;;;;;;16.30;100.00;97032.00;5067455;28;20296;-71
2022/10/02 11:13:13;;;;;;;4.30;0.90;;;;;;;16.35;100.00;97023.31;5066082;28;20037;-71
2022/10/02 11:15:59;;;;;;;1.67;0.65;;;;;;;16.15;100.00;97024.88;5054229;28;20040;-71
2022/10/02 11:18:59;;;;;;;2.22;0.35;;;;;;;15.93;100.00;97013.06;5070056;28;20110;-71
2022/10/02 11:21:50;;;;;;;0.70;0.50;;;;;;;15.92;100.00;97012.28;5047760;28;20040;-70
2022/10/02 11:24:34;;;;;;;1.83;0.60;;;;;;;16.13;100.00;96991.34;5066792;28;20033;-72
2022/10/02 11:27:29;;;;;;;2.78;0.57;;;;;;;16.49;100.00;96997.59;5059282;28;20050;-72
2022/10/02 11:30:04;;;;;;;1.05;0.50;;;;;;;16.74;100.00;96999.50;5043424;28;20036;-70
2022/10/02 11:32:53;;;;;;;1.95;0.93;;;;;;;17.14;100.00;96994.63;5040360;28;20037;-70
2022/10/02 11:35:34;;;;;;;1.75;0.85;;;;;;;17.39;100.00;96989.78;5051931;28;20040;-70
2022/10/02 11:38:18;;;;;;;0.80;0.40;;;;;;;17.52;100.00;96986.50;5058220;28;20048;-70
2022/10/02 11:41:13;;;;;;;2.30;0.60;;;;;;;17.94;100.00;96982.69;5041983;28;20147;-71
2022/10/02 11:44:09;;;;;;;0.43;0.28;;;;;;;17.96;100.00;96988.59;5054081;28;20488;-72
2022/10/02 11:47:00;;;;;;;2.60;0.30;;;;;;;18.10;100.00;96987.69;5041814;28;20040;-72
2022/10/02 11:49:36;;;;;;;1.08;0.40;;;;;;;18.26;100.00;96984.38;5048848;28;20703;-72
2022/10/02 11:52:04;;;;;;;0.65;0.20;;;;;;;18.20;100.00;96988.78;5076340;28;20077;-72
2022/10/02 11:55:05;;;;;;;0.57;0.20;;;;;;;17.95;100.00;96975.94;5042473;28;20132;-72
2022/10/02 11:58:07;;;;;;;0.30;0.30;;;;;;;17.88;100.00;96987.09;5042373;28;20094;-73
2022/10/02 12:01:04;;;;;;;0.70;0.30;;;;;;;17.95;100.00;96995.34;5065306;28;20144;-72
2022/10/02 12:03:48;;;;;;;0.85;0.30;;;;;;;17.91;100.00;96994.56;5051248;28;20067;-72
2022/10/02 12:06:20;;;;;;;0.43;0.22;;;;;;;17.86;100.00;96986.72;5053947;28;20078;-72
2022/10/02 12:08:48;;;;;;;0.75;0.40;;;;;;;17.73;100.00;96974.50;5056047;28;20045;-72
2022/10/02 12:11:20;;;;;;;0.40;0.30;;;;;;;18.06;100.00;96972.28;5055301;28;20600;-72
2022/10/02 12:14:21;;;;;;;0.68;0.40;;;;;;;18.17;100.00;96975.75;5059695;28;20357;-72
2022/10/02 12:17:07;;;;;;;0.70;0.50;;;;;;;18.17;100.00;96970.22;5019168;28;20128;-71
2022/10/02 12:29:29;;;;;;;1.13;0.50;;;;;;;17.71;100.00;96958.28;5055086;28;20036;-71
2022/10/02 12:32:06;;;;;;;1.25;0.40;;;;;;;17.87;100.00;96957.78;5050175;28;20037;-70
2022/10/02 12:35:01;;;;;;;2.58;0.45;;;;;;;17.90;100.00;96951.44;5063403;28;20083;-70
2022/10/02 12:37:47;;;;;;;0.60;0.52;;;;;;;17.62;100.00;96946.88;5039880;28;20049;-71
2022/10/02 12:40:32;;;;;;;1.92;0.93;;;;;;;17.75;100.00;96939.69;5053282;28;20114;-70
2022/10/02 12:43:01;;;;;;;1.58;0.80;;;;;;;17.76;100.00;96952.31;5058140;28;20500;-71
2022/10/02 12:45:57;;;;;;;1.33;0.70;;;;;;;17.86;100.00;96939.63;5055932;28;20044;-70
2022/10/02 12:48:44;;;;;;;1.45;0.77;;;;;;;18.00;100.00;96932.34;5055692;28;20049;-71